Time;durP1;ratioP1;P1;durP2;ratioP2;P2;SDS_P1;SDS_P2;PMS_P1;PMS_P2;Temp;Humidity;BMP_temperature;BMP_pressure;BME280_temperature;BME280_humidity;BME280_pressure;Samples;Min_cycle;Max_cycle;Signal;HPM_P1;HPM_P2
2022/03/08 00:00:01;;;;;;;33.67;19.70;;;;;;;;;;5036978;28;20887;-74
2022/03/08 00:02:29;;;;;;;38.07;19.63;;;;;;;;;;5036582;28;20526;-74
2022/03/08 00:04:57;;;;;;;37.50;19.07;;;;;;;;;;5037831;28;20447;-74
2022/03/08 00:07:28;;;;;;;32.93;19.77;;;;;;;;;;5039065;28;20500;-74
2022/03/08 00:09:56;;;;;;;32.33;19.53;;;;;;;;;;5034196;28;20486;-74
2022/03/08 00:12:24;;;;;;;34.10;19.90;;;;;;;;;;5038334;28;20565;-74
2022/03/08 00:14:52;;;;;;;32.27;18.40;;;;;;;;;;5038092;28;20557;-74
2022/03/08 00:17:21;;;;;;;33.73;18.87;;;;;;;;;;5029616;28;20939;-74
2022/03/08 00:19:49;;;;;;;37.70;20.47;;;;;;;;;;5037428;28;20905;-74
2022/03/08 00:22:17;;;;;;;35.27;20.37;;;;;;;;;;5038680;28;20479;-74
2022/03/08 00:24:47;;;;;;;33.77;20.37;;;;;;;;;;5034667;28;20542;-73
2022/03/08 00:27:15;;;;;;;33.13;19.50;;;;;;;;;;5038099;28;20502;-73
2022/03/08 00:29:43;;;;;;;32.77;19.50;;;;;;;;;;5032337;28;20482;-74
2022/03/08 00:32:11;;;;;;;33.33;19.30;;;;;;;;;;5035386;28;20521;-73
2022/03/08 00:34:39;;;;;;;31.33;18.53;;;;;;;;;;5038199;28;20541;-73
2022/03/08 00:37:07;;;;;;;33.47;18.93;;;;;;;;;;5038257;28;20553;-73
2022/03/08 00:39:35;;;;;;;31.47;19.50;;;;;;;;;;5038017;28;20890;-74
2022/03/08 00:42:05;;;;;;;34.43;19.20;;;;;;;;;;5030473;28;20994;-74
2022/03/08 00:44:33;;;;;;;31.20;17.43;;;;;;;;;;5038122;28;20474;-74
2022/03/08 00:47:01;;;;;;;31.93;19.03;;;;;;;;;;5037783;28;20540;-74
2022/03/08 00:49:29;;;;;;;33.73;19.67;;;;;;;;;;5038130;28;20493;-74
2022/03/08 00:51:57;;;;;;;31.60;19.40;;;;;;;;;;5034757;28;20482;-74
2022/03/08 00:54:25;;;;;;;36.60;19.67;;;;;;;;;;5038188;28;20488;-74
2022/03/08 00:56:53;;;;;;;34.83;20.77;;;;;;;;;;5037489;28;20505;-74
2022/03/08 00:59:23;;;;;;;35.20;21.23;;;;;;;;;;5037810;28;20485;-74
2022/03/08 01:01:51;;;;;;;47.90;21.57;;;;;;;;;;5034294;28;20455;-74
2022/03/08 01:04:19;;;;;;;39.27;21.90;;;;;;;;;;5038187;28;20533;-74
2022/03/08 01:06:47;;;;;;;40.90;22.70;;;;;;;;;;5037227;28;20890;-74
2022/03/08 01:09:15;;;;;;;41.00;22.13;;;;;;;;;;5037856;28;20481;-74
2022/03/08 01:11:43;;;;;;;40.07;22.00;;;;;;;;;;5037769;28;20485;-74
2022/03/08 01:14:11;;;;;;;40.43;23.07;;;;;;;;;;5038133;28;20557;-74
2022/03/08 01:16:40;;;;;;;46.23;23.07;;;;;;;;;;5039038;28;21060;-74
2022/03/08 01:19:08;;;;;;;42.97;22.57;;;;;;;;;;5037167;28;20821;-74
2022/03/08 01:21:37;;;;;;;39.53;23.83;;;;;;;;;;5041612;28;20477;-74
2022/03/08 01:24:05;;;;;;;39.87;21.50;;;;;;;;;;5035857;28;20477;-74
2022/03/08 01:26:33;;;;;;;46.17;23.63;;;;;;;;;;5039286;28;20902;-74
2022/03/08 01:29:01;;;;;;;42.63;23.80;;;;;;;;;;5037212;28;20563;-74
2022/03/08 01:31:29;;;;;;;48.00;24.73;;;;;;;;;;5041910;28;20480;-74
2022/03/08 01:33:59;;;;;;;44.93;23.20;;;;;;;;;;5034444;28;20513;-74
2022/03/08 01:36:27;;;;;;;44.00;22.03;;;;;;;;;;5039015;28;20467;-74
2022/03/08 01:38:55;;;;;;;42.17;22.53;;;;;;;;;;5036982;28;20489;-75
2022/03/08 01:41:23;;;;;;;42.27;24.77;;;;;;;;;;5037896;28;20477;-74
2022/03/08 01:43:51;;;;;;;47.97;23.73;;;;;;;;;;5027042;28;20474;-74
2022/03/08 01:46:19;;;;;;;37.93;21.03;;;;;;;;;;5040412;28;20461;-75
2022/03/08 01:48:47;;;;;;;36.30;21.23;;;;;;;;;;5039592;28;20511;-74
2022/03/08 01:51:17;;;;;;;40.63;21.87;;;;;;;;;;5036536;28;20472;-74
2022/03/08 01:53:46;;;;;;;41.33;21.37;;;;;;;;;;5038354;28;20482;-75
2022/03/08 01:56:15;;;;;;;41.80;23.17;;;;;;;;;;5039070;28;20505;-75
2022/03/08 01:58:43;;;;;;;41.87;22.80;;;;;;;;;;5036927;28;20524;-75
2022/03/08 02:01:11;;;;;;;36.57;21.90;;;;;;;;;;5038275;28;20486;-75
2022/03/08 02:03:39;;;;;;;38.83;22.40;;;;;;;;;;5035067;28;20479;-75
2022/03/08 02:06:07;;;;;;;38.40;22.67;;;;;;;;;;5036102;28;20558;-75
2022/03/08 02:08:37;;;;;;;37.10;22.03;;;;;;;;;;5037010;28;20473;-75
2022/03/08 02:11:05;;;;;;;38.87;21.93;;;;;;;;;;5038863;28;20533;-74
2022/03/08 02:13:33;;;;;;;39.60;22.10;;;;;;;;;;5031677;28;20565;-75
2022/03/08 02:16:01;;;;;;;43.80;24.97;;;;;;;;;;5036239;28;20510;-75
2022/03/08 02:18:30;;;;;;;37.97;22.50;;;;;;;;;;5034769;28;20851;-75
2022/03/08 02:20:59;;;;;;;37.83;22.27;;;;;;;;;;5036894;28;20538;-75
2022/03/08 02:23:28;;;;;;;39.93;22.67;;;;;;;;;;5036286;28;20504;-75
2022/03/08 02:25:56;;;;;;;42.80;22.97;;;;;;;;;;5036339;28;20917;-75
2022/03/08 02:28:25;;;;;;;43.33;24.53;;;;;;;;;;5036528;28;20459;-75
2022/03/08 02:30:54;;;;;;;44.70;22.73;;;;;;;;;;5035592;28;20988;-75
2022/03/08 02:33:22;;;;;;;46.93;23.60;;;;;;;;;;5028149;28;20570;-75
2022/03/08 02:35:50;;;;;;;49.00;22.27;;;;;;;;;;5036362;28;20481;-75
2022/03/08 02:38:18;;;;;;;37.97;22.70;;;;;;;;;;5028314;28;20889;-75
2022/03/08 02:40:47;;;;;;;37.87;21.60;;;;;;;;;;5036815;28;20481;-75
2022/03/08 02:43:16;;;;;;;38.07;22.30;;;;;;;;;;5033792;28;20478;-75
2022/03/08 02:45:44;;;;;;;42.23;23.50;;;;;;;;;;5036130;28;20570;-75
2022/03/08 02:48:12;;;;;;;41.80;22.97;;;;;;;;;;5036383;28;20501;-75
2022/03/08 02:50:40;;;;;;;45.63;23.77;;;;;;;;;;5031706;28;20450;-75
2022/03/08 02:53:08;;;;;;;38.20;23.23;;;;;;;;;;5032911;28;20477;-75
2022/03/08 02:55:36;;;;;;;42.70;22.30;;;;;;;;;;5033586;28;20908;-75
2022/03/08 02:58:06;;;;;;;45.83;24.70;;;;;;;;;;5036087;28;20977;-75
2022/03/08 03:00:34;;;;;;;45.83;24.30;;;;;;;;;;5032831;28;20535;-75
2022/03/08 03:03:03;;;;;;;47.60;24.80;;;;;;;;;;5033380;28;20465;-75
2022/03/08 03:05:32;;;;;;;41.07;24.57;;;;;;;;;;5033097;28;20466;-75
2022/03/08 03:08:00;;;;;;;51.47;25.43;;;;;;;;;;5035830;28;21064;-76
2022/03/08 03:10:28;;;;;;;52.77;25.70;;;;;;;;;;5035594;28;20884;-75
2022/03/08 03:12:57;;;;;;;42.10;25.60;;;;;;;;;;5034073;28;20565;-75
2022/03/08 03:15:27;;;;;;;42.33;22.37;;;;;;;;;;5038956;28;20503;-75
2022/03/08 03:17:55;;;;;;;47.13;24.07;;;;;;;;;;5036820;28;20450;-75
2022/03/08 03:20:26;;;;;;;45.87;24.07;;;;;;;;;;5034065;28;20549;-75
2022/03/08 03:22:54;;;;;;;40.33;22.53;;;;;;;;;;5032701;28;20466;-75
2022/03/08 03:25:22;;;;;;;44.97;23.90;;;;;;;;;;5039071;28;20553;-75
2022/03/08 03:27:50;;;;;;;44.03;21.13;;;;;;;;;;5038538;28;20474;-75
2022/03/08 03:30:19;;;;;;;39.43;21.93;;;;;;;;;;5039110;28;21000;-75
2022/03/08 03:32:48;;;;;;;37.47;22.40;;;;;;;;;;5039470;28;20478;-75
2022/03/08 03:35:16;;;;;;;34.90;21.03;;;;;;;;;;5039346;28;20564;-75
2022/03/08 03:37:44;;;;;;;41.60;21.93;;;;;;;;;;5036476;28;20557;-75
2022/03/08 03:40:13;;;;;;;34.23;21.13;;;;;;;;;;5039688;28;20478;-75
2022/03/08 03:42:41;;;;;;;40.63;20.87;;;;;;;;;;5035507;28;20499;-75
2022/03/08 03:45:10;;;;;;;40.23;21.60;;;;;;;;;;5039020;28;20474;-75
2022/03/08 03:47:38;;;;;;;41.00;22.07;;;;;;;;;;5039448;28;20478;-75
2022/03/08 03:50:08;;;;;;;35.70;20.87;;;;;;;;;;5035674;28;20478;-73
2022/03/08 03:52:36;;;;;;;40.03;22.20;;;;;;;;;;5031473;28;20897;-74
2022/03/08 03:55:10;;;;;;;38.53;21.50;;;;;;;;;;5037290;28;20486;-75
2022/03/08 03:57:38;;;;;;;35.80;20.80;;;;;;;;;;5037453;28;20533;-74
2022/03/08 04:00:07;;;;;;;37.57;22.17;;;;;;;;;;5036757;28;20529;-75
2022/03/08 04:02:35;;;;;;;40.73;22.10;;;;;;;;;;5033965;28;20489;-76
2022/03/08 04:05:04;;;;;;;39.33;21.20;;;;;;;;;;5036838;28;20450;-76
2022/03/08 04:07:33;;;;;;;40.33;20.70;;;;;;;;;;5035776;28;20500;-75
2022/03/08 04:10:01;;;;;;;36.40;20.60;;;;;;;;;;5036651;28;20500;-75
2022/03/08 04:12:29;;;;;;;40.30;22.43;;;;;;;;;;5038311;28;20459;-75
2022/03/08 04:14:57;;;;;;;39.70;20.47;;;;;;;;;;5035251;28;21085;-76
2022/03/08 04:17:25;;;;;;;43.17;21.47;;;;;;;;;;5035220;28;20548;-75
2022/03/08 04:19:53;;;;;;;42.20;21.70;;;;;;;;;;5036294;28;20513;-75
2022/03/08 04:22:21;;;;;;;41.73;20.93;;;;;;;;;;5036784;28;20447;-75
2022/03/08 04:24:51;;;;;;;41.90;22.67;;;;;;;;;;5036008;28;20481;-74
2022/03/08 04:27:19;;;;;;;40.67;21.97;;;;;;;;;;5035794;28;20498;-74
2022/03/08 04:29:47;;;;;;;39.43;21.07;;;;;;;;;;5030307;28;20483;-75
2022/03/08 04:32:15;;;;;;;36.60;20.30;;;;;;;;;;5035174;28;20474;-74
2022/03/08 04:34:43;;;;;;;35.43;20.73;;;;;;;;;;5035334;28;20517;-74
2022/03/08 04:37:11;;;;;;;39.80;21.33;;;;;;;;;;5038435;28;20506;-74
2022/03/08 04:39:39;;;;;;;32.23;19.17;;;;;;;;;;5037728;28;20498;-73
2022/03/08 04:42:08;;;;;;;36.60;19.90;;;;;;;;;;5035550;28;20482;-73
2022/03/08 04:44:38;;;;;;;40.87;19.67;;;;;;;;;;5037927;28;20482;-74
2022/03/08 04:47:06;;;;;;;36.50;21.23;;;;;;;;;;5037376;28;21028;-73
2022/03/08 04:49:34;;;;;;;39.93;21.07;;;;;;;;;;5038210;28;20482;-73
2022/03/08 04:52:02;;;;;;;38.93;20.90;;;;;;;;;;5037263;28;20450;-74
2022/03/08 04:54:30;;;;;;;37.20;20.10;;;;;;;;;;5037034;28;20474;-72
2022/03/08 04:56:58;;;;;;;36.80;20.90;;;;;;;;;;5037801;28;20501;-73
2022/03/08 04:59:27;;;;;;;42.07;20.20;;;;;;;;;;5037850;28;20485;-73
2022/03/08 05:01:55;;;;;;;36.43;20.20;;;;;;;;;;5034607;28;20554;-73
2022/03/08 05:04:23;;;;;;;37.27;20.13;;;;;;;;;;5029649;28;20520;-73
2022/03/08 05:06:51;;;;;;;32.13;20.27;;;;;;;;;;5037563;28;20519;-72
2022/03/08 05:09:19;;;;;;;39.07;20.83;;;;;;;;;;5037446;28;20537;-72
2022/03/08 05:11:47;;;;;;;39.73;21.47;;;;;;;;;;5037851;28;20533;-73
2022/03/08 05:14:15;;;;;;;41.53;21.27;;;;;;;;;;5033191;28;20565;-72
2022/03/08 05:16:45;;;;;;;35.90;19.47;;;;;;;;;;5030213;28;20935;-72
2022/03/08 05:19:13;;;;;;;35.87;20.53;;;;;;;;;;5037640;28;20446;-72
2022/03/08 05:21:41;;;;;;;38.57;21.00;;;;;;;;;;5029549;28;20537;-72
2022/03/08 05:24:09;;;;;;;41.60;21.03;;;;;;;;;;5034368;28;20529;-72
2022/03/08 05:26:38;;;;;;;36.37;19.40;;;;;;;;;;5033670;28;21021;-73
2022/03/08 05:29:06;;;;;;;35.50;20.27;;;;;;;;;;5033976;28;20534;-73
2022/03/08 05:31:34;;;;;;;38.20;20.83;;;;;;;;;;5031140;28;20454;-72
2022/03/08 05:34:04;;;;;;;38.07;20.03;;;;;;;;;;5029806;28;20897;-73
2022/03/08 05:36:33;;;;;;;39.07;21.23;;;;;;;;;;5033636;28;20561;-72
2022/03/08 05:39:01;;;;;;;40.43;21.47;;;;;;;;;;5029254;28;20447;-73
2022/03/08 05:41:29;;;;;;;37.63;19.70;;;;;;;;;;5036941;28;20894;-73
2022/03/08 05:43:57;;;;;;;38.90;21.23;;;;;;;;;;5036536;28;20885;-73
2022/03/08 05:46:25;;;;;;;40.87;20.97;;;;;;;;;;5036818;28;20470;-73
2022/03/08 05:48:53;;;;;;;32.20;19.37;;;;;;;;;;5033588;28;20545;-73
2022/03/08 05:51:22;;;;;;;40.07;21.17;;;;;;;;;;5037186;28;20486;-73
2022/03/08 05:53:50;;;;;;;38.57;19.73;;;;;;;;;;5033413;28;20534;-73
2022/03/08 05:56:18;;;;;;;35.97;20.03;;;;;;;;;;5033758;28;20481;-73
2022/03/08 05:58:46;;;;;;;35.47;20.83;;;;;;;;;;5034975;28;20489;-73
2022/03/08 06:01:14;;;;;;;35.63;21.40;;;;;;;;;;5035641;28;20485;-73
2022/03/08 06:03:42;;;;;;;33.17;20.13;;;;;;;;;;5036553;28;20454;-73
2022/03/08 06:06:11;;;;;;;43.07;22.23;;;;;;;;;;5036115;28;21029;-73
2022/03/08 06:08:41;;;;;;;36.47;20.60;;;;;;;;;;5032320;28;20478;-73
2022/03/08 06:11:09;;;;;;;37.33;20.63;;;;;;;;;;5029140;28;20529;-74
2022/03/08 06:13:38;;;;;;;41.10;21.13;;;;;;;;;;5032276;28;20907;-73
2022/03/08 06:16:06;;;;;;;44.20;21.00;;;;;;;;;;5035601;28;20916;-73
2022/03/08 06:18:34;;;;;;;46.87;23.70;;;;;;;;;;5036109;28;20954;-73
2022/03/08 06:21:02;;;;;;;44.50;22.20;;;;;;;;;;5028729;28;20537;-73
2022/03/08 06:23:30;;;;;;;47.37;24.27;;;;;;;;;;5032389;28;20489;-73
2022/03/08 06:25:59;;;;;;;48.33;23.17;;;;;;;;;;5036759;28;20561;-73
2022/03/08 06:28:28;;;;;;;47.23;24.57;;;;;;;;;;5030722;28;20868;-73
2022/03/08 06:30:58;;;;;;;42.23;23.77;;;;;;;;;;5036391;28;20533;-73
2022/03/08 06:33:27;;;;;;;42.77;21.70;;;;;;;;;;5036720;28;20522;-73
2022/03/08 06:35:55;;;;;;;46.53;23.93;;;;;;;;;;5032505;28;20589;-73
2022/03/08 06:38:23;;;;;;;44.33;23.73;;;;;;;;;;5034770;28;20450;-73
2022/03/08 06:40:52;;;;;;;41.70;24.33;;;;;;;;;;5035533;28;20455;-73
2022/03/08 06:43:21;;;;;;;48.60;24.87;;;;;;;;;;5036499;28;20497;-74
2022/03/08 06:45:49;;;;;;;45.33;24.60;;;;;;;;;;5035588;28;20609;-74
2022/03/08 06:48:17;;;;;;;42.33;23.33;;;;;;;;;;5039617;28;20458;-74
2022/03/08 06:50:45;;;;;;;39.63;22.00;;;;;;;;;;5039827;28;20491;-74
2022/03/08 06:53:13;;;;;;;44.70;24.33;;;;;;;;;;5035450;28;20553;-74
2022/03/08 06:55:41;;;;;;;37.93;23.43;;;;;;;;;;5039766;28;20930;-74
2022/03/08 06:58:09;;;;;;;46.70;22.83;;;;;;;;;;5037632;28;20479;-74
2022/03/08 07:00:39;;;;;;;46.57;22.63;;;;;;;;;;5036747;28;20557;-74
2022/03/08 07:03:07;;;;;;;38.13;21.20;;;;;;;;;;5040225;28;20450;-74
2022/03/08 07:05:36;;;;;;;53.33;34.47;;;;;;;;;;5039807;28;20476;-74
2022/03/08 07:08:05;;;;;;;44.53;23.47;;;;;;;;;;5040016;28;20482;-74
2022/03/08 07:10:33;;;;;;;46.17;22.37;;;;;;;;;;5040070;28;21053;-73
2022/03/08 07:13:01;;;;;;;41.70;23.20;;;;;;;;;;5032862;28;20546;-74
2022/03/08 07:15:29;;;;;;;40.33;22.47;;;;;;;;;;5011589;28;20499;-74
2022/03/08 07:17:58;;;;;;;43.60;24.70;;;;;;;;;;5017966;28;20513;-75
2022/03/08 07:20:28;;;;;;;41.27;22.93;;;;;;;;;;5019824;28;20501;-73
2022/03/08 07:22:56;;;;;;;44.63;23.17;;;;;;;;;;5014846;28;20559;-74
2022/03/08 07:25:24;;;;;;;42.53;24.03;;;;;;;;;;5018737;28;20551;-73
2022/03/08 07:27:52;;;;;;;49.07;25.23;;;;;;;;;;5016395;28;20543;-74
2022/03/08 07:30:20;;;;;;;36.37;22.80;;;;;;;;;;5014789;28;20871;-74
2022/03/08 07:32:49;;;;;;;44.33;23.77;;;;;;;;;;5018700;28;20486;-74
2022/03/08 07:35:19;;;;;;;41.47;22.20;;;;;;;;;;5018088;28;20511;-74
2022/03/08 07:37:47;;;;;;;39.33;22.90;;;;;;;;;;5019377;28;21009;-74
2022/03/08 07:40:15;;;;;;;34.70;22.30;;;;;;;;;;5019201;28;20474;-74
2022/03/08 07:42:43;;;;;;;52.17;23.63;;;;;;;;;;5012177;28;20447;-73
2022/03/08 07:45:11;;;;;;;39.07;22.80;;;;;;;;;;5018242;28;20451;-74
2022/03/08 07:47:39;;;;;;;43.93;22.83;;;;;;;;;;5018525;28;20962;-73
2022/03/08 07:50:07;;;;;;;38.90;21.73;;;;;;;;;;5018969;28;20479;-74
2022/03/08 07:52:38;;;;;;;46.37;23.27;;;;;;;;;;5018665;28;20522;-73
2022/03/08 07:55:07;;;;;;;48.33;23.40;;;;;;;;;;5019461;28;20455;-74
2022/03/08 07:57:35;;;;;;;40.33;22.17;;;;;;;;;;5016224;28;21002;-73
2022/03/08 08:00:24;;;;;;;40.63;22.60;;;;;;;;;;5013792;28;20455;-73
2022/03/08 08:02:52;;;;;;;42.00;21.43;;;;;;;;;;5017574;28;20458;-73
2022/03/08 08:05:20;;;;;;;45.90;23.03;;;;;;;;;;5014859;28;20471;-73
2022/03/08 08:07:50;;;;;;;45.70;24.23;;;;;;;;;;5016203;28;21018;-73
2022/03/08 08:10:18;;;;;;;38.83;23.87;;;;;;;;;;5014097;28;20479;-74
2022/03/08 08:12:46;;;;;;;38.40;22.67;;;;;;;;;;5021810;28;20533;-73
2022/03/08 08:15:14;;;;;;;35.03;20.50;;;;;;;;;;5037798;28;20524;-73
2022/03/08 08:17:43;;;;;;;47.27;23.70;;;;;;;;;;5035178;28;20512;-73
2022/03/08 08:20:11;;;;;;;48.87;26.40;;;;;;;;;;5038878;28;20478;-74
2022/03/08 08:22:39;;;;;;;40.37;23.00;;;;;;;;;;5036184;28;20223;-73
2022/03/08 08:25:10;;;;;;;42.20;22.27;;;;;;;;;;5038011;28;20481;-74
2022/03/08 08:27:38;;;;;;;36.10;21.90;;;;;;;;;;5038843;28;20463;-73
2022/03/08 08:30:07;;;;;;;39.63;22.13;;;;;;;;;;5034809;28;20961;-73
2022/03/08 08:32:35;;;;;;;39.33;21.87;;;;;;;;;;5038009;28;20457;-73
2022/03/08 08:35:04;;;;;;;39.87;21.63;;;;;;;;;;5038159;28;20278;-74
2022/03/08 08:37:32;;;;;;;34.83;20.87;;;;;;;;;;5034146;28;20538;-73
2022/03/08 08:40:00;;;;;;;35.83;21.23;;;;;;;;;;5029868;28;20530;-75
2022/03/08 08:42:29;;;;;;;36.73;21.90;;;;;;;;;;5035162;28;20648;-73
2022/03/08 08:44:57;;;;;;;35.63;21.80;;;;;;;;;;5027121;28;20533;-73
2022/03/08 08:47:25;;;;;;;39.83;22.27;;;;;;;;;;5034732;28;20473;-73
2022/03/08 08:49:53;;;;;;;38.63;22.50;;;;;;;;;;5035414;28;20706;-73
2022/03/08 08:52:21;;;;;;;39.83;21.00;;;;;;;;;;5037859;28;20474;-74
2022/03/08 08:54:49;;;;;;;43.27;22.60;;;;;;;;;;5037882;28;20488;-73
2022/03/08 08:57:17;;;;;;;37.30;21.33;;;;;;;;;;5036553;28;20516;-73
2022/03/08 08:59:46;;;;;;;38.10;21.33;;;;;;;;;;5030629;28;20962;-73
2022/03/08 09:02:14;;;;;;;40.13;22.17;;;;;;;;;;5034542;28;20273;-73
2022/03/08 09:04:43;;;;;;;45.20;22.63;;;;;;;;;;5037829;28;20450;-73
2022/03/08 09:07:11;;;;;;;36.40;21.53;;;;;;;;;;5037097;28;20326;-73
2022/03/08 09:09:39;;;;;;;41.47;21.93;;;;;;;;;;5032346;28;20227;-73
2022/03/08 09:12:07;;;;;;;37.50;22.27;;;;;;;;;;5034160;28;20231;-74
2022/03/08 09:14:35;;;;;;;39.07;21.97;;;;;;;;;;5044700;28;20235;-73
2022/03/08 09:17:05;;;;;;;39.67;21.63;;;;;;;;;;5039301;28;20227;-74
2022/03/08 09:19:33;;;;;;;34.77;20.97;;;;;;;;;;5044710;28;20207;-73
2022/03/08 09:22:01;;;;;;;41.00;22.63;;;;;;;;;;5040362;28;20282;-74
2022/03/08 09:24:29;;;;;;;37.37;22.67;;;;;;;;;;5037054;28;20236;-73
2022/03/08 09:26:57;;;;;;;43.80;22.07;;;;;;;;;;5044619;28;20219;-73
2022/03/08 09:29:25;;;;;;;43.20;23.23;;;;;;;;;;5036720;28;20242;-74
2022/03/08 09:31:53;;;;;;;38.57;22.80;;;;;;;;;;5037188;28;20227;-73
2022/03/08 09:34:22;;;;;;;37.80;20.57;;;;;;;;;;5039137;28;20200;-73
2022/03/08 09:36:50;;;;;;;36.87;20.93;;;;;;;;;;5032662;28;20247;-73
2022/03/08 09:39:18;;;;;;;41.00;21.60;;;;;;;;;;5037096;28;20242;-73
2022/03/08 09:41:51;;;;;;;34.27;20.13;;;;;;;;;;5038626;28;20246;-73
2022/03/08 09:44:20;;;;;;;29.47;17.73;;;;;;;;;;5036771;28;20549;-73
2022/03/08 09:46:48;;;;;;;29.20;17.30;;;;;;;;;;5039105;28;20707;-74
2022/03/08 09:49:16;;;;;;;38.10;17.03;;;;;;;;;;5035302;28;20236;-73
2022/03/08 09:51:45;;;;;;;29.27;16.60;;;;;;;;;;5036911;28;20287;-73
2022/03/08 09:54:13;;;;;;;28.97;16.43;;;;;;;;;;5036847;28;20626;-73
2022/03/08 09:56:42;;;;;;;30.30;15.67;;;;;;;;;;5037541;28;20490;-74
2022/03/08 09:59:10;;;;;;;29.27;16.70;;;;;;;;;;5036802;28;20315;-74
2022/03/08 10:01:38;;;;;;;28.47;15.70;;;;;;;;;;5036720;28;20450;-74
2022/03/08 10:04:07;;;;;;;28.57;15.67;;;;;;;;;;5033847;28;20191;-74
2022/03/08 10:06:57;;;;;;;32.17;14.67;;;;;;;;;;5037875;28;20231;-74
2022/03/08 10:09:25;;;;;;;23.10;14.60;;;;;;;;;;5037360;28;20200;-74
2022/03/08 10:11:54;;;;;;;33.43;16.50;;;;;;;;;;5038345;28;20257;-74
2022/03/08 10:14:31;;;;;;;27.53;16.17;;;;;;;;;;5018494;28;20224;-74
2022/03/08 10:16:59;;;;;;;30.03;16.00;;;;;;;;;;5013021;28;20225;-74
2022/03/08 10:19:27;;;;;;;28.47;16.10;;;;;;;;;;5016456;28;20258;-74
2022/03/08 10:21:57;;;;;;;28.57;15.73;;;;;;;;;;5018922;28;20635;-74
2022/03/08 10:24:26;;;;;;;37.53;17.23;;;;;;;;;;5023157;28;20227;-74
2022/03/08 10:26:59;;;;;;;25.03;15.07;;;;;;;;;;5022945;28;20228;-74
2022/03/08 10:29:27;;;;;;;25.77;12.40;;;;;;;;;;5017476;28;20272;-73
2022/03/08 10:32:16;;;;;;;21.40;12.50;;;;;;;;;;5015111;28;20287;-74
2022/03/08 10:34:45;;;;;;;20.43;11.07;;;;;;;;;;5020486;28;20200;-74
2022/03/08 10:37:19;;;;;;;24.27;12.80;;;;;;;;;;5023165;28;20307;-73
2022/03/08 10:39:51;;;;;;;20.37;10.93;;;;;;;;;;5021075;28;20273;-74
2022/03/08 10:42:20;;;;;;;29.70;13.60;;;;;;;;;;5015851;28;20227;-74
2022/03/08 10:44:48;;;;;;;20.77;12.10;;;;;;;;;;5023084;28;20286;-74
2022/03/08 10:47:17;;;;;;;22.07;11.83;;;;;;;;;;5022593;28;20761;-74
2022/03/08 10:49:49;;;;;;;22.20;11.60;;;;;;;;;;5020688;28;20231;-74
2022/03/08 10:52:25;;;;;;;19.00;10.90;;;;;;;;;;5023019;28;20200;-73
2022/03/08 10:54:54;;;;;;;22.37;10.90;;;;;;;;;;5019647;28;20236;-74
2022/03/08 10:57:22;;;;;;;24.50;11.73;;;;;;;;;;5015882;28;20283;-74
2022/03/08 11:00:13;;;;;;;22.97;11.73;;;;;;;;;;5022796;28;20204;-74
2022/03/08 11:02:49;;;;;;;22.97;11.57;;;;;;;;;;5023299;28;20204;-74
2022/03/08 11:05:18;;;;;;;21.43;11.73;;;;;;;;;;5022439;28;20679;-73
2022/03/08 11:07:48;;;;;;;21.00;10.53;;;;;;;;;;5022972;28;20238;-72
2022/03/08 11:10:16;;;;;;;20.53;11.33;;;;;;;;;;5019353;28;20752;-74
2022/03/08 11:12:44;;;;;;;20.47;11.23;;;;;;;;;;5026095;28;20270;-75
2022/03/08 11:15:14;;;;;;;22.17;11.17;;;;;;;;;;5036974;28;20211;-73
2022/03/08 11:17:43;;;;;;;18.90;10.27;;;;;;;;;;5039670;28;20207;-72
2022/03/08 11:20:12;;;;;;;18.40;10.23;;;;;;;;;;5042252;28;20634;-73
2022/03/08 11:22:42;;;;;;;25.83;10.83;;;;;;;;;;5042586;28;20237;-74
2022/03/08 11:25:12;;;;;;;16.57;9.30;;;;;;;;;;5042206;28;20203;-74
2022/03/08 11:28:01;;;;;;;14.80;8.43;;;;;;;;;;5043046;28;20203;-73
2022/03/08 11:30:30;;;;;;;17.20;9.63;;;;;;;;;;5039094;28;20231;-74
2022/03/08 11:33:03;;;;;;;16.73;9.60;;;;;;;;;;5033278;28;20239;-74
2022/03/08 11:35:32;;;;;;;15.50;7.93;;;;;;;;;;5035688;28;20266;-73
2022/03/08 11:38:01;;;;;;;17.83;8.23;;;;;;;;;;5030665;28;20231;-74
2022/03/08 11:40:32;;;;;;;14.73;8.07;;;;;;;;;;5036233;28;20241;-74
2022/03/08 11:43:03;;;;;;;13.33;7.83;;;;;;;;;;5039295;28;20242;-74
2022/03/08 11:45:32;;;;;;;14.60;7.83;;;;;;;;;;5038922;28;20250;-73
2022/03/08 11:48:01;;;;;;;13.33;7.53;;;;;;;;;;5039269;28;20207;-74
2022/03/08 11:50:31;;;;;;;15.10;7.50;;;;;;;;;;5038710;28;20290;-72
2022/03/08 11:53:10;;;;;;;15.03;7.73;;;;;;;;;;5038257;28;20578;-73
2022/03/08 11:55:41;;;;;;;13.43;7.57;;;;;;;;;;5038638;28;20234;-72
2022/03/08 11:58:09;;;;;;;12.10;7.27;;;;;;;;;;5038984;28;20283;-73
2022/03/08 12:00:43;;;;;;;13.00;7.83;;;;;;;;;;5037965;28;20643;-74
2022/03/08 12:03:14;;;;;;;12.40;7.33;;;;;;;;;;5033689;28;20238;-74
2022/03/08 12:05:57;;;;;;;12.03;7.90;;;;;;;;;;5033615;28;20589;-74
2022/03/08 12:08:55;;;;;;;11.17;7.53;;;;;;;;;;5033699;28;20223;-73
2022/03/08 12:11:45;;;;;;;13.43;7.80;;;;;;;;;;5033760;28;20671;-74
2022/03/08 12:14:24;;;;;;;16.20;7.30;;;;;;;;;;5036475;28;20257;-73
2022/03/08 12:16:53;;;;;;;11.57;8.00;;;;;;;;;;5037640;28;20255;-73
2022/03/08 12:19:32;;;;;;;14.23;7.23;;;;;;;;;;5038793;28;20255;-74
2022/03/08 12:22:00;;;;;;;12.90;7.20;;;;;;;;;;5035249;28;20195;-74
2022/03/08 12:24:33;;;;;;;12.27;7.63;;;;;;;;;;5036083;28;20234;-74
2022/03/08 12:27:03;;;;;;;20.73;7.93;;;;;;;;;;5038372;28;20302;-74
2022/03/08 12:29:53;;;;;;;15.47;7.50;;;;;;;;;;5027200;28;20200;-73
2022/03/08 12:32:36;;;;;;;13.27;7.37;;;;;;;;;;5038705;28;20287;-73
2022/03/08 12:35:08;;;;;;;14.00;7.70;;;;;;;;;;5035373;28;20203;-73
2022/03/08 12:37:47;;;;;;;9.60;6.57;;;;;;;;;;5037944;28;20204;-73
2022/03/08 12:40:32;;;;;;;12.73;6.53;;;;;;;;;;5035102;28;20270;-74
2022/03/08 12:43:06;;;;;;;13.00;7.63;;;;;;;;;;5031509;28;20227;-73
2022/03/08 12:45:42;;;;;;;11.60;7.10;;;;;;;;;;5034132;28;20219;-72
2022/03/08 12:48:11;;;;;;;12.23;7.43;;;;;;;;;;5034853;28;20571;-74
2022/03/08 12:50:40;;;;;;;14.67;7.80;;;;;;;;;;5037806;28;20235;-73
2022/03/08 12:53:09;;;;;;;14.03;7.70;;;;;;;;;;5034786;28;20287;-74
2022/03/08 12:55:38;;;;;;;15.07;7.17;;;;;;;;;;5035449;28;20511;-73
2022/03/08 12:58:08;;;;;;;11.70;6.70;;;;;;;;;;5034922;28;20207;-74
2022/03/08 13:00:38;;;;;;;12.67;7.00;;;;;;;;;;5034379;28;20263;-74
2022/03/08 13:03:10;;;;;;;13.10;6.70;;;;;;;;;;5037666;28;20199;-74
2022/03/08 13:05:40;;;;;;;11.37;5.80;;;;;;;;;;5033658;28;20258;-73
2022/03/08 13:08:08;;;;;;;11.27;6.27;;;;;;;;;;5037810;28;20286;-74
2022/03/08 13:10:36;;;;;;;12.60;6.07;;;;;;;;;;5034604;28;20203;-73
2022/03/08 13:13:26;;;;;;;9.03;5.77;;;;;;;;;;5022651;28;20232;-74
2022/03/08 13:15:54;;;;;;;14.40;6.27;;;;;;;;;;5014753;28;20282;-73
2022/03/08 13:18:23;;;;;;;10.93;6.40;;;;;;;;;;5014350;28;20231;-73
2022/03/08 13:20:52;;;;;;;10.57;6.77;;;;;;;;;;5017322;28;20224;-73
2022/03/08 13:23:22;;;;;;;14.60;8.30;;;;;;;;;;5017269;28;20638;-73
2022/03/08 13:25:51;;;;;;;13.00;7.03;;;;;;;;;;5017346;28;20235;-72
2022/03/08 13:28:20;;;;;;;10.03;6.40;;;;;;;;;;5017971;28;20220;-73
2022/03/08 13:30:51;;;;;;;10.50;6.57;;;;;;;;;;5017084;28;20247;-74
2022/03/08 13:33:23;;;;;;;13.07;6.93;;;;;;;;;;5009533;28;20229;-74
2022/03/08 13:35:53;;;;;;;9.57;6.30;;;;;;;;;;5013394;28;20257;-74
2022/03/08 13:38:21;;;;;;;8.87;6.10;;;;;;;;;;5011053;28;20284;-73
2022/03/08 13:40:50;;;;;;;10.87;5.63;;;;;;;;;;5016894;28;20311;-74
2022/03/08 13:43:19;;;;;;;9.37;6.23;;;;;;;;;;5017549;28;20236;-75
2022/03/08 13:46:10;;;;;;;12.20;6.70;;;;;;;;;;5017432;28;20228;-75
2022/03/08 13:48:39;;;;;;;10.87;6.30;;;;;;;;;;5017285;28;20228;-73
2022/03/08 13:51:08;;;;;;;8.57;6.03;;;;;;;;;;5006635;28;20292;-74
2022/03/08 13:53:36;;;;;;;6.70;5.13;;;;;;;;;;5014226;28;20628;-73
2022/03/08 13:56:04;;;;;;;8.80;6.37;;;;;;;;;;5016578;28;20263;-73
2022/03/08 13:58:33;;;;;;;18.27;6.10;;;;;;;;;;5013771;28;20279;-74
2022/03/08 14:01:05;;;;;;;8.70;5.90;;;;;;;;;;5013683;28;20661;-74
2022/03/08 14:03:39;;;;;;;7.53;5.90;;;;;;;;;;5017473;28;20287;-74
2022/03/08 14:06:10;;;;;;;9.40;5.80;;;;;;;;;;5013331;28;20822;-74
2022/03/08 14:08:43;;;;;;;7.57;5.53;;;;;;;;;;5016823;28;20278;-74
2022/03/08 14:11:13;;;;;;;11.83;5.23;;;;;;;;;;5014179;28;20232;-74
2022/03/08 14:13:48;;;;;;;8.80;5.87;;;;;;;;;;5015318;28;20243;-74
2022/03/08 14:16:16;;;;;;;10.37;5.53;;;;;;;;;;5016280;28;20623;-74
2022/03/08 14:18:50;;;;;;;7.97;5.60;;;;;;;;;;5012041;28;20204;-74
2022/03/08 14:21:25;;;;;;;6.53;4.77;;;;;;;;;;5016713;28;20288;-74
2022/03/08 14:23:53;;;;;;;8.90;4.90;;;;;;;;;;5016329;28;20261;-74
2022/03/08 14:26:23;;;;;;;7.80;5.47;;;;;;;;;;5016717;28;20266;-74
2022/03/08 14:28:54;;;;;;;11.97;5.67;;;;;;;;;;5016350;28;20235;-74
2022/03/08 14:31:27;;;;;;;8.40;5.03;;;;;;;;;;5016176;28;20405;-74
2022/03/08 14:34:10;;;;;;;9.93;5.87;;;;;;;;;;5016668;28;20565;-74